createdAt,value
2023-05-21T00:04:11.876Z,100639.50
2023-05-21T00:09:14.686Z,100638.50
2023-05-21T00:14:18.852Z,100631.97
2023-05-21T00:19:21.724Z,100622.91
2023-05-21T00:24:24.586Z,100615.09
2023-05-21T00:29:30.164Z,100617.22
2023-05-21T00:34:33.485Z,100615.41
2023-05-21T00:39:36.554Z,100600.31
2023-05-21T00:44:41.339Z,100609.13
2023-05-21T00:49:44.262Z,100604.00
2023-05-21T00:54:47.986Z,100602.59
2023-05-21T00:59:53.879Z,100603.72
2023-05-21T01:04:56.753Z,100595.22
2023-05-21T01:09:59.590Z,100595.78
2023-05-21T01:15:05.131Z,100590.22
2023-05-21T01:20:11.155Z,100602.59
2023-05-21T01:25:15.560Z,100594.47
2023-05-21T01:30:19.689Z,100594.03
2023-05-21T01:35:26.195Z,100581.94
2023-05-21T01:40:38.288Z,100584.06
2023-05-21T01:45:43.323Z,100578.22
2023-05-21T01:50:47.357Z,100583.91
2023-05-21T01:55:51.705Z,100589.03
2023-05-21T02:00:54.781Z,100576.78
2023-05-21T02:05:57.756Z,100572.66
2023-05-21T02:11:02.000Z,100570.94
2023-05-21T02:16:05.260Z,100565.78
2023-05-21T02:21:08.156Z,100558.09
2023-05-21T02:26:12.393Z,100565.34
2023-05-21T02:31:15.435Z,100570.31
2023-05-21T02:36:18.977Z,100568.59
2023-05-21T02:41:23.382Z,100565.91
2023-05-21T02:46:26.620Z,100564.34
2023-05-21T02:51:29.537Z,100565.63
2023-05-21T02:56:33.766Z,100557.19
2023-05-21T03:01:37.436Z,100544.38
2023-05-21T03:06:40.412Z,100539.16
2023-05-21T03:11:45.170Z,100536.47
2023-05-21T03:16:49.165Z,100541.28
2023-05-21T03:21:54.628Z,100533.94
2023-05-21T03:26:59.201Z,100525.69
2023-05-21T03:32:03.040Z,100527.69
2023-05-21T03:37:07.658Z,100539.00
2023-05-21T03:42:14.088Z,100540.72
2023-05-21T03:47:27.519Z,100540.44
2023-05-21T03:52:31.023Z,100540.56
2023-05-21T03:57:35.926Z,100550.97
2023-05-21T04:02:38.976Z,100545.59
2023-05-21T04:07:42.966Z,100543.47
2023-05-21T04:12:49.171Z,100540.22
2023-05-21T04:17:52.406Z,100546.63
2023-05-21T04:22:55.514Z,100550.44
2023-05-21T04:27:59.985Z,100556.31
2023-05-21T04:33:02.967Z,100563.16
2023-05-21T04:38:06.652Z,100570.56
2023-05-21T04:43:11.427Z,100569.00
2023-05-21T04:48:15.814Z,100569.72
2023-05-21T04:53:18.930Z,100566.91
2023-05-21T04:58:23.180Z,100572.16
2023-05-21T05:03:26.820Z,100563.50
2023-05-21T05:08:29.812Z,100561.66
2023-05-21T05:13:35.462Z,100545.16
2023-05-21T05:18:38.586Z,100542.03
2023-05-21T05:23:41.648Z,100542.00
2023-05-21T05:28:46.934Z,100545.00
2023-05-21T05:33:50.368Z,100544.72
2023-05-21T05:38:53.605Z,100543.25
2023-05-21T05:43:58.759Z,100538.09
2023-05-21T05:49:05.484Z,100536.53
2023-05-21T05:54:08.367Z,100533.94
2023-05-21T05:59:14.133Z,100534.78
2023-05-21T06:04:23.095Z,100538.41
2023-05-21T06:09:26.058Z,100529.09
2023-05-21T06:14:30.283Z,100528.44
2023-05-21T06:19:33.179Z,100527.53
2023-05-21T06:24:36.506Z,100531.56
2023-05-21T06:29:42.203Z,100531.56
2023-05-21T06:34:45.175Z,100531.78
2023-05-21T06:39:48.530Z,100525.53
2023-05-21T06:44:52.950Z,100516.91
2023-05-21T06:50:04.049Z,100520.09
2023-05-21T06:55:08.279Z,100525.47
2023-05-21T07:00:36.552Z,100528.09
2023-05-21T07:05:40.392Z,100520.81
2023-05-21T07:10:43.449Z,100525.38
2023-05-21T07:15:49.093Z,100520.31
2023-05-21T07:20:52.050Z,100524.88
2023-05-21T07:25:56.394Z,100528.78
2023-05-21T07:31:01.012Z,100532.66
2023-05-21T07:36:09.915Z,100529.66
2023-05-21T07:41:12.898Z,100526.28
2023-05-21T07:46:17.522Z,100529.06
2023-05-21T07:51:21.934Z,100519.41
2023-05-21T07:56:25.116Z,100519.03
2023-05-21T08:01:29.982Z,100513.63
2023-05-21T08:06:34.525Z,100509.19
2023-05-21T08:11:37.919Z,100521.06
2023-05-21T08:16:42.268Z,100511.50
2023-05-21T08:21:45.204Z,100516.94
2023-05-21T08:26:49.617Z,100519.94
2023-05-21T08:31:53.937Z,100515.28
2023-05-21T08:36:56.760Z,100513.69
2023-05-21T08:42:36.454Z,100515.41
2023-05-21T08:47:44.676Z,100511.31
2023-05-21T08:52:48.476Z,100516.84
2023-05-21T08:57:51.944Z,100521.50
2023-05-21T09:02:56.492Z,100508.59
2023-05-21T09:08:06.828Z,100509.94
2023-05-21T09:13:21.770Z,100507.22
2023-05-21T09:18:28.545Z,100511.34
2023-05-21T09:23:41.007Z,100505.22
2023-05-21T09:28:44.562Z,100498.56
2023-05-21T09:33:49.038Z,100493.00
2023-05-21T09:38:53.545Z,100500.97
2023-05-21T09:44:00.278Z,100495.34
2023-05-21T09:49:05.650Z,100495.09
2023-05-21T09:54:12.368Z,100502.75
2023-05-21T09:59:15.409Z,100498.22
2023-05-21T10:04:20.094Z,100494.44
2023-05-21T10:09:23.390Z,100482.56
2023-05-21T10:14:28.747Z,100476.03
2023-05-21T10:19:36.353Z,100469.44
2023-05-21T10:24:40.655Z,100476.78
2023-05-21T10:29:45.476Z,100461.56
2023-05-21T10:34:50.472Z,100460.53
2023-05-21T10:39:53.507Z,100453.28
2023-05-21T10:45:11.387Z,100444.25
2023-05-21T10:50:40.814Z,100450.03
2023-05-21T10:55:58.394Z,100434.63
2023-05-21T11:01:03.415Z,100430.09
2023-05-21T11:06:08.490Z,100422.00
2023-05-21T11:11:11.453Z,100421.50
2023-05-21T11:16:18.603Z,100424.94
2023-05-21T11:21:26.170Z,100420.34
2023-05-21T11:26:30.588Z,100421.66
2023-05-21T11:31:38.297Z,100427.84
2023-05-21T11:36:45.625Z,100425.94
2023-05-21T11:41:55.183Z,100412.94
2023-05-21T11:46:58.899Z,100411.03
2023-05-21T11:52:04.153Z,100418.38
2023-05-21T11:57:08.031Z,100403.53
2023-05-21T12:02:10.807Z,100397.28
2023-05-21T12:07:16.062Z,100398.34
2023-05-21T12:12:20.238Z,100398.69
2023-05-21T12:17:24.920Z,100393.19
2023-05-21T12:22:29.847Z,100388.69
2023-05-21T12:27:34.721Z,100393.03
2023-05-21T12:32:44.009Z,100385.66
2023-05-21T12:37:48.335Z,100374.75
2023-05-21T12:42:52.065Z,100385.66
2023-05-21T12:47:56.492Z,100374.00
2023-05-21T12:53:00.977Z,100372.63
2023-05-21T12:58:05.403Z,100370.16
2023-05-21T13:03:08.612Z,100379.38
2023-05-21T13:08:14.353Z,100367.53
2023-05-21T13:13:17.212Z,100361.16
2023-05-21T13:18:20.845Z,100370.84
2023-05-21T13:23:25.604Z,100360.34
2023-05-21T13:28:29.285Z,100358.66
2023-05-21T13:33:32.688Z,100354.59
2023-05-21T13:38:36.954Z,100351.53
2023-05-21T13:43:43.602Z,100341.56
2023-05-21T13:48:46.394Z,100341.50
2023-05-21T13:53:50.610Z,100344.56
2023-05-21T13:58:53.414Z,100344.69
2023-05-21T14:03:56.234Z,100344.88
2023-05-21T14:09:00.538Z,100341.72
2023-05-21T14:14:03.906Z,100332.09
2023-05-21T14:19:06.756Z,100334.13
2023-05-21T14:24:11.161Z,100338.50
2023-05-21T14:29:14.041Z,100335.38
2023-05-21T14:34:16.837Z,100322.44
2023-05-21T14:39:21.027Z,100320.50
2023-05-21T14:44:23.858Z,100327.69
2023-05-21T14:49:26.725Z,100334.03
2023-05-21T14:54:30.994Z,100328.50
2023-05-21T14:59:33.871Z,100314.50
2023-05-21T15:04:36.678Z,100317.94
2023-05-21T15:09:41.018Z,100313.97
2023-05-21T15:14:43.891Z,100311.63
2023-05-21T15:19:46.739Z,100309.34
2023-05-21T15:24:51.008Z,100307.66
2023-05-21T15:29:53.943Z,100299.59
2023-05-21T15:34:56.821Z,100285.69
2023-05-21T15:40:01.139Z,100271.38
2023-05-21T15:45:04.508Z,100263.28
2023-05-21T15:50:09.362Z,100242.50
2023-05-21T15:55:14.389Z,100250.84
2023-05-21T16:00:17.632Z,100253.28
2023-05-21T16:05:20.520Z,100250.94
2023-05-21T16:10:24.859Z,100246.50
2023-05-21T16:15:28.508Z,100250.66
2023-05-21T16:20:31.355Z,100252.41
2023-05-21T16:25:36.569Z,100234.16
2023-05-21T16:30:39.764Z,100246.50
2023-05-21T16:35:42.620Z,100242.16
2023-05-21T16:40:47.205Z,100239.59
2023-05-21T16:45:52.394Z,100240.41
2023-05-21T16:50:55.317Z,100243.72
2023-05-21T16:55:59.583Z,100247.16
2023-05-21T17:01:03.796Z,100252.56
2023-05-21T17:06:07.561Z,100240.06
2023-05-21T17:11:12.016Z,100249.34
2023-05-21T17:16:14.967Z,100243.84
2023-05-21T17:21:18.491Z,100242.22
2023-05-21T17:26:23.139Z,100238.69
2023-05-21T17:31:26.055Z,100237.56
2023-05-21T17:36:28.966Z,100243.56
2023-05-21T17:41:33.182Z,100241.72
2023-05-21T17:46:36.075Z,100244.06
2023-05-21T17:51:39.573Z,100244.31
2023-05-21T17:56:45.638Z,100251.22
2023-05-21T18:01:49.385Z,100266.75
2023-05-21T18:06:52.576Z,100260.97
2023-05-21T18:11:58.209Z,100251.09
2023-05-21T18:17:01.356Z,100250.44
2023-05-21T18:22:05.059Z,100248.25
2023-05-21T18:27:09.534Z,100246.44
2023-05-21T18:32:14.364Z,100248.16
2023-05-21T18:37:18.417Z,100251.13
2023-05-21T18:42:22.649Z,100251.13
2023-05-21T18:47:25.660Z,100250.94
2023-05-21T18:52:28.570Z,100252.44
2023-05-21T18:57:34.349Z,100258.13
2023-05-21T19:02:38.405Z,100262.06
2023-05-21T19:07:42.138Z,100267.53
2023-05-21T19:12:46.765Z,100263.75
2023-05-21T19:17:49.763Z,100273.22
2023-05-21T19:22:52.671Z,100269.59
2023-05-21T19:27:56.906Z,100270.41
2023-05-21T19:32:59.884Z,100277.34
2023-05-21T19:38:05.139Z,100279.84
2023-05-21T19:43:09.737Z,100284.00
2023-05-21T19:48:12.609Z,100273.63
2023-05-21T19:53:15.563Z,100281.81
2023-05-21T19:58:23.704Z,100286.22
2023-05-21T20:03:28.007Z,100292.31
2023-05-21T20:08:31.027Z,100287.06
2023-05-21T20:13:35.301Z,100284.72
2023-05-21T20:18:38.188Z,100286.56
2023-05-21T20:23:41.200Z,100289.13
2023-05-21T20:28:45.688Z,100280.03
2023-05-21T20:33:50.642Z,100282.31
2023-05-21T20:38:54.098Z,100277.63
2023-05-21T20:43:58.972Z,100279.09
2023-05-21T20:49:01.833Z,100275.00
2023-05-21T20:54:04.822Z,100278.13
2023-05-21T20:59:10.889Z,100281.28
2023-05-21T21:04:14.274Z,100277.88
2023-05-21T21:09:17.583Z,100285.03
2023-05-21T21:14:21.832Z,100289.47
2023-05-21T21:19:24.621Z,100294.13
2023-05-21T21:24:27.464Z,100289.50
2023-05-21T21:29:31.720Z,100283.81
2023-05-21T21:34:34.609Z,100272.63
2023-05-21T21:39:37.507Z,100267.34
2023-05-21T21:44:42.130Z,100278.13
2023-05-21T21:49:45.047Z,100269.41
2023-05-21T21:54:48.145Z,100266.22
2023-05-21T21:59:52.356Z,100274.81
2023-05-21T22:04:55.752Z,100274.91
2023-05-21T22:09:58.668Z,100276.06
2023-05-21T22:15:05.374Z,100279.94
2023-05-21T22:20:08.987Z,100279.16
2023-05-21T22:25:11.779Z,100272.59
2023-05-21T22:30:16.029Z,100267.06
2023-05-21T22:35:19.727Z,100262.72
2023-05-21T22:40:22.531Z,100259.81
2023-05-21T22:45:26.687Z,100256.22
2023-05-21T22:50:32.883Z,100248.63
2023-05-21T22:55:35.863Z,100255.56
2023-05-21T23:00:40.227Z,100248.34
2023-05-21T23:05:43.427Z,100251.44
2023-05-21T23:10:46.360Z,100252.94
2023-05-21T23:15:51.438Z,100249.84
2023-05-21T23:20:54.282Z,100248.09
2023-05-21T23:25:57.726Z,100240.19
2023-05-21T23:31:02.066Z,100247.44
2023-05-21T23:36:05.193Z,100247.22
2023-05-21T23:41:08.258Z,100254.59
2023-05-21T23:46:12.509Z,100261.06
2023-05-21T23:51:15.611Z,100249.09
2023-05-21T23:56:18.365Z,100253.50
